sensor_id;sensor_type;location;lat;lon;timestamp;P1;durP1;ratioP1;P2;durP2;ratioP2
32934;SDS011;19292;51.532;7.650;2024-02-26T00:01:32;1.80;;;1.70;;
32934;SDS011;19292;51.532;7.650;2024-02-26T00:03:59;2.10;;;1.90;;
32934;SDS011;19292;51.532;7.650;2024-02-26T00:06:27;2.00;;;1.90;;
32934;SDS011;19292;51.532;7.650;2024-02-26T00:08:53;1.50;;;1.42;;
32934;SDS011;19292;51.532;7.650;2024-02-26T00:11:18;2.10;;;2.00;;
32934;SDS011;19292;51.532;7.650;2024-02-26T00:13:44;1.73;;;1.73;;
32934;SDS011;19292;51.532;7.650;2024-02-26T00:16:09;2.30;;;2.20;;
32934;SDS011;19292;51.532;7.650;2024-02-26T00:18:34;2.60;;;2.45;;
32934;SDS011;19292;51.532;7.650;2024-02-26T00:21:02;2.88;;;2.78;;
32934;SDS011;19292;51.532;7.650;2024-02-26T00:23:28;4.55;;;4.22;;
32934;SDS011;19292;51.532;7.650;2024-02-26T00:26:00;4.35;;;4.15;;
32934;SDS011;19292;51.532;7.650;2024-02-26T00:28:28;5.15;;;4.85;;
32934;SDS011;19292;51.532;7.650;2024-02-26T00:30:54;5.43;;;5.03;;
32934;SDS011;19292;51.532;7.650;2024-02-26T00:33:22;5.80;;;5.50;;
32934;SDS011;19292;51.532;7.650;2024-02-26T00:35:48;6.35;;;5.95;;
32934;SDS011;19292;51.532;7.650;2024-02-26T00:38:18;6.88;;;6.57;;
32934;SDS011;19292;51.532;7.650;2024-02-26T00:40:45;8.30;;;7.90;;
32934;SDS011;19292;51.532;7.650;2024-02-26T00:43:11;9.05;;;8.55;;
32934;SDS011;19292;51.532;7.650;2024-02-26T00:45:38;7.50;;;7.00;;
32934;SDS011;19292;51.532;7.650;2024-02-26T00:48:03;6.53;;;6.13;;
32934;SDS011;19292;51.532;7.650;2024-02-26T00:50:32;3.97;;;3.78;;
32934;SDS011;19292;51.532;7.650;2024-02-26T00:53:00;3.65;;;3.45;;
32934;SDS011;19292;51.532;7.650;2024-02-26T00:55:26;2.30;;;2.05;;
32934;SDS011;19292;51.532;7.650;2024-02-26T00:57:54;2.33;;;2.22;;
32934;SDS011;19292;51.532;7.650;2024-02-26T01:00:24;2.33;;;2.22;;
32934;SDS011;19292;51.532;7.650;2024-02-26T01:02:52;2.45;;;2.35;;
32934;SDS011;19292;51.532;7.650;2024-02-26T01:05:19;2.20;;;2.10;;
32934;SDS011;19292;51.532;7.650;2024-02-26T01:07:50;2.40;;;2.30;;
32934;SDS011;19292;51.532;7.650;2024-02-26T01:10:18;2.28;;;2.17;;
32934;SDS011;19292;51.532;7.650;2024-02-26T01:12:44;3.67;;;3.47;;
32934;SDS011;19292;51.532;7.650;2024-02-26T01:15:09;4.15;;;3.97;;
32934;SDS011;19292;51.532;7.650;2024-02-26T01:17:39;5.88;;;5.57;;
32934;SDS011;19292;51.532;7.650;2024-02-26T01:20:07;6.88;;;6.47;;
32934;SDS011;19292;51.532;7.650;2024-02-26T01:22:34;6.43;;;6.13;;
32934;SDS011;19292;51.532;7.650;2024-02-26T01:24:59;9.90;;;9.30;;
32934;SDS011;19292;51.532;7.650;2024-02-26T01:27:27;6.82;;;6.43;;
32934;SDS011;19292;51.532;7.650;2024-02-26T01:29:57;4.93;;;4.63;;
32934;SDS011;19292;51.532;7.650;2024-02-26T01:32:22;2.75;;;2.65;;
32934;SDS011;19292;51.532;7.650;2024-02-26T01:34:50;1.88;;;1.77;;
32934;SDS011;19292;51.532;7.650;2024-02-26T01:37:18;2.50;;;2.38;;
32934;SDS011;19292;51.532;7.650;2024-02-26T01:39:45;2.33;;;2.08;;
32934;SDS011;19292;51.532;7.650;2024-02-26T01:42:15;2.00;;;1.75;;
32934;SDS011;19292;51.532;7.650;2024-02-26T01:44:43;1.50;;;1.42;;
32934;SDS011;19292;51.532;7.650;2024-02-26T01:47:11;1.90;;;1.80;;
32934;SDS011;19292;51.532;7.650;2024-02-26T01:49:40;1.77;;;1.70;;
32934;SDS011;19292;51.532;7.650;2024-02-26T01:52:08;1.50;;;1.40;;
32934;SDS011;19292;51.532;7.650;2024-02-26T01:54:35;0.95;;;0.95;;
32934;SDS011;19292;51.532;7.650;2024-02-26T01:57:06;2.22;;;2.13;;
32934;SDS011;19292;51.532;7.650;2024-02-26T01:59:35;1.58;;;1.48;;
32934;SDS011;19292;51.532;7.650;2024-02-26T02:02:03;2.60;;;2.22;;
32934;SDS011;19292;51.532;7.650;2024-02-26T02:04:30;1.30;;;1.30;;
32934;SDS011;19292;51.532;7.650;2024-02-26T02:07:01;1.92;;;1.83;;
32934;SDS011;19292;51.532;7.650;2024-02-26T02:09:31;1.42;;;1.33;;
32934;SDS011;19292;51.532;7.650;2024-02-26T02:11:58;2.53;;;2.42;;
32934;SDS011;19292;51.532;7.650;2024-02-26T02:14:27;1.88;;;1.77;;
32934;SDS011;19292;51.532;7.650;2024-02-26T02:16:52;1.50;;;1.50;;
32934;SDS011;19292;51.532;7.650;2024-02-26T02:19:17;1.63;;;1.52;;
32934;SDS011;19292;51.532;7.650;2024-02-26T02:21:43;1.25;;;1.25;;
32934;SDS011;19292;51.532;7.650;2024-02-26T02:24:08;0.98;;;0.98;;
32934;SDS011;19292;51.532;7.650;2024-02-26T02:26:36;2.90;;;1.73;;
32934;SDS011;19292;51.532;7.650;2024-02-26T02:29:06;1.90;;;1.80;;
32934;SDS011;19292;51.532;7.650;2024-02-26T02:31:31;1.48;;;1.48;;
32934;SDS011;19292;51.532;7.650;2024-02-26T02:33:59;1.73;;;1.63;;
32934;SDS011;19292;51.532;7.650;2024-02-26T02:38:57;1.85;;;1.30;;
32934;SDS011;19292;51.532;7.650;2024-02-26T02:41:23;1.42;;;1.33;;
32934;SDS011;19292;51.532;7.650;2024-02-26T02:43:51;1.27;;;1.27;;
32934;SDS011;19292;51.532;7.650;2024-02-26T02:46:21;1.75;;;1.75;;
32934;SDS011;19292;51.532;7.650;2024-02-26T02:48:51;1.23;;;1.23;;
32934;SDS011;19292;51.532;7.650;2024-02-26T02:51:19;1.45;;;1.40;;
32934;SDS011;19292;51.532;7.650;2024-02-26T02:53:47;1.63;;;1.60;;
32934;SDS011;19292;51.532;7.650;2024-02-26T02:56:12;1.65;;;1.65;;
32934;SDS011;19292;51.532;7.650;2024-02-26T02:58:38;1.70;;;1.70;;
32934;SDS011;19292;51.532;7.650;2024-02-26T03:01:08;1.88;;;1.88;;
32934;SDS011;19292;51.532;7.650;2024-02-26T03:03:33;2.97;;;2.75;;
32934;SDS011;19292;51.532;7.650;2024-02-26T03:06:02;1.88;;;1.77;;
32934;SDS011;19292;51.532;7.650;2024-02-26T03:08:30;1.48;;;1.48;;
32934;SDS011;19292;51.532;7.650;2024-02-26T03:10:55;1.95;;;1.55;;
32934;SDS011;19292;51.532;7.650;2024-02-26T03:13:23;1.60;;;1.60;;
32934;SDS011;19292;51.532;7.650;2024-02-26T03:15:49;2.75;;;2.50;;
32934;SDS011;19292;51.532;7.650;2024-02-26T03:18:14;1.10;;;1.10;;
32934;SDS011;19292;51.532;7.650;2024-02-26T03:20:39;1.80;;;1.70;;
32934;SDS011;19292;51.532;7.650;2024-02-26T03:23:07;1.45;;;1.38;;
32934;SDS011;19292;51.532;7.650;2024-02-26T03:25:36;1.48;;;1.45;;
32934;SDS011;19292;51.532;7.650;2024-02-26T03:28:09;1.60;;;1.60;;
32934;SDS011;19292;51.532;7.650;2024-02-26T03:30:35;2.95;;;1.88;;
32934;SDS011;19292;51.532;7.650;2024-02-26T03:33:00;2.30;;;2.20;;
32934;SDS011;19292;51.532;7.650;2024-02-26T03:35:30;2.38;;;2.25;;
32934;SDS011;19292;51.532;7.650;2024-02-26T03:37:58;2.65;;;2.50;;
32934;SDS011;19292;51.532;7.650;2024-02-26T03:40:23;3.72;;;3.53;;
32934;SDS011;19292;51.532;7.650;2024-02-26T03:42:51;4.53;;;4.32;;
32934;SDS011;19292;51.532;7.650;2024-02-26T03:45:19;5.90;;;5.60;;
32934;SDS011;19292;51.532;7.650;2024-02-26T03:47:44;6.13;;;5.82;;
32934;SDS011;19292;51.532;7.650;2024-02-26T03:50:12;6.80;;;6.50;;
32934;SDS011;19292;51.532;7.650;2024-02-26T03:52:40;7.35;;;6.95;;
32934;SDS011;19292;51.532;7.650;2024-02-26T03:55:05;6.60;;;6.25;;
32934;SDS011;19292;51.532;7.650;2024-02-26T03:57:31;5.43;;;5.13;;
32934;SDS011;19292;51.532;7.650;2024-02-26T03:59:56;5.78;;;5.15;;
32934;SDS011;19292;51.532;7.650;2024-02-26T04:02:24;3.08;;;2.97;;
32934;SDS011;19292;51.532;7.650;2024-02-26T04:04:50;3.85;;;2.70;;
32934;SDS011;19292;51.532;7.650;2024-02-26T04:07:15;2.50;;;2.38;;
32934;SDS011;19292;51.532;7.650;2024-02-26T04:09:44;1.95;;;1.85;;
32934;SDS011;19292;51.532;7.650;2024-02-26T04:12:09;1.73;;;1.63;;
32934;SDS011;19292;51.532;7.650;2024-02-26T04:14:37;1.23;;;1.10;;
32934;SDS011;19292;51.532;7.650;2024-02-26T04:17:02;0.65;;;0.65;;
32934;SDS011;19292;51.532;7.650;2024-02-26T04:19:28;8.07;;;1.15;;
32934;SDS011;19292;51.532;7.650;2024-02-26T04:21:54;1.70;;;1.58;;
32934;SDS011;19292;51.532;7.650;2024-02-26T04:24:19;2.47;;;2.38;;
32934;SDS011;19292;51.532;7.650;2024-02-26T04:26:47;6.53;;;6.18;;
32934;SDS011;19292;51.532;7.650;2024-02-26T04:29:14;6.75;;;6.35;;
32934;SDS011;19292;51.532;7.650;2024-02-26T04:31:42;3.97;;;3.80;;
32934;SDS011;19292;51.532;7.650;2024-02-26T04:34:08;2.60;;;2.50;;
32934;SDS011;19292;51.532;7.650;2024-02-26T04:36:35;2.10;;;2.00;;
32934;SDS011;19292;51.532;7.650;2024-02-26T04:39:01;0.80;;;0.80;;
32934;SDS011;19292;51.532;7.650;2024-02-26T04:41:31;0.40;;;0.40;;
32934;SDS011;19292;51.532;7.650;2024-02-26T04:43:56;0.70;;;0.70;;
32934;SDS011;19292;51.532;7.650;2024-02-26T04:46:24;1.00;;;1.00;;
32934;SDS011;19292;51.532;7.650;2024-02-26T04:48:50;0.90;;;0.90;;
32934;SDS011;19292;51.532;7.650;2024-02-26T04:51:15;3.55;;;3.35;;
32934;SDS011;19292;51.532;7.650;2024-02-26T04:53:41;4.88;;;4.68;;
32934;SDS011;19292;51.532;7.650;2024-02-26T04:56:06;7.78;;;7.28;;
32934;SDS011;19292;51.532;7.650;2024-02-26T04:58:34;10.02;;;9.52;;
32934;SDS011;19292;51.532;7.650;2024-02-26T05:00:59;8.85;;;8.45;;
32934;SDS011;19292;51.532;7.650;2024-02-26T05:03:28;8.93;;;8.52;;
32934;SDS011;19292;51.532;7.650;2024-02-26T05:05:53;9.43;;;9.00;;
32934;SDS011;19292;51.532;7.650;2024-02-26T05:08:19;8.93;;;8.43;;
32934;SDS011;19292;51.532;7.650;2024-02-26T05:10:46;6.05;;;5.75;;
32934;SDS011;19292;51.532;7.650;2024-02-26T05:13:16;5.55;;;5.30;;
32934;SDS011;19292;51.532;7.650;2024-02-26T05:15:43;3.53;;;3.42;;
32934;SDS011;19292;51.532;7.650;2024-02-26T05:18:08;3.83;;;3.63;;
32934;SDS011;19292;51.532;7.650;2024-02-26T05:20:43;2.67;;;2.58;;
32934;SDS011;19292;51.532;7.650;2024-02-26T05:23:09;2.08;;;1.85;;
32934;SDS011;19292;51.532;7.650;2024-02-26T05:25:37;4.93;;;1.48;;
32934;SDS011;19292;51.532;7.650;2024-02-26T05:28:06;1.75;;;1.65;;
32934;SDS011;19292;51.532;7.650;2024-02-26T05:30:31;1.27;;;0.88;;
32934;SDS011;19292;51.532;7.650;2024-02-26T05:32:59;0.73;;;0.73;;
32934;SDS011;19292;51.532;7.650;2024-02-26T05:35:24;0.50;;;0.50;;
32934;SDS011;19292;51.532;7.650;2024-02-26T05:37:56;0.95;;;0.95;;
32934;SDS011;19292;51.532;7.650;2024-02-26T05:40:22;2.40;;;1.23;;
32934;SDS011;19292;51.532;7.650;2024-02-26T05:42:50;0.82;;;0.82;;
32934;SDS011;19292;51.532;7.650;2024-02-26T05:45:19;2.45;;;1.70;;
32934;SDS011;19292;51.532;7.650;2024-02-26T05:47:52;1.60;;;1.08;;
32934;SDS011;19292;51.532;7.650;2024-02-26T05:50:20;1.60;;;1.50;;
32934;SDS011;19292;51.532;7.650;2024-02-26T05:52:47;2.13;;;2.03;;
32934;SDS011;19292;51.532;7.650;2024-02-26T05:55:15;2.97;;;2.00;;
32934;SDS011;19292;51.532;7.650;2024-02-26T05:57:43;1.23;;;1.23;;
32934;SDS011;19292;51.532;7.650;2024-02-26T06:00:11;1.65;;;1.58;;
32934;SDS011;19292;51.532;7.650;2024-02-26T06:02:37;4.13;;;3.15;;
32934;SDS011;19292;51.532;7.650;2024-02-26T06:05:03;3.60;;;3.40;;
32934;SDS011;19292;51.532;7.650;2024-02-26T06:07:32;4.47;;;4.28;;
32934;SDS011;19292;51.532;7.650;2024-02-26T06:10:02;3.42;;;3.33;;
32934;SDS011;19292;51.532;7.650;2024-02-26T06:12:30;2.92;;;2.72;;
32934;SDS011;19292;51.532;7.650;2024-02-26T06:15:00;1.83;;;1.25;;
32934;SDS011;19292;51.532;7.650;2024-02-26T06:17:29;1.00;;;1.00;;
32934;SDS011;19292;51.532;7.650;2024-02-26T06:19:54;1.30;;;0.93;;
32934;SDS011;19292;51.532;7.650;2024-02-26T06:22:26;1.03;;;1.03;;
32934;SDS011;19292;51.532;7.650;2024-02-26T06:24:59;3.15;;;2.95;;
32934;SDS011;19292;51.532;7.650;2024-02-26T06:27:27;6.22;;;5.88;;
32934;SDS011;19292;51.532;7.650;2024-02-26T06:29:52;10.05;;;9.45;;
32934;SDS011;19292;51.532;7.650;2024-02-26T06:32:18;16.95;;;16.15;;
32934;SDS011;19292;51.532;7.650;2024-02-26T06:34:45;16.42;;;15.52;;
32934;SDS011;19292;51.532;7.650;2024-02-26T06:37:13;23.40;;;22.40;;
32934;SDS011;19292;51.532;7.650;2024-02-26T06:39:38;25.92;;;24.63;;
32934;SDS011;19292;51.532;7.650;2024-02-26T06:42:06;41.92;;;39.70;;
32934;SDS011;19292;51.532;7.650;2024-02-26T06:44:34;39.33;;;37.63;;
32934;SDS011;19292;51.532;7.650;2024-02-26T06:46:59;40.92;;;39.20;;
32934;SDS011;19292;51.532;7.650;2024-02-26T06:49:25;54.30;;;52.03;;
32934;SDS011;19292;51.532;7.650;2024-02-26T06:51:53;60.80;;;58.30;;
32934;SDS011;19292;51.532;7.650;2024-02-26T06:54:18;56.80;;;54.47;;
32934;SDS011;19292;51.532;7.650;2024-02-26T06:56:48;59.30;;;56.63;;
32934;SDS011;19292;51.532;7.650;2024-02-26T06:59:14;47.42;;;45.50;;
32934;SDS011;19292;51.532;7.650;2024-02-26T07:01:40;40.22;;;38.58;;
32934;SDS011;19292;51.532;7.650;2024-02-26T07:04:06;41.92;;;40.20;;
32934;SDS011;19292;51.532;7.650;2024-02-26T07:06:32;32.47;;;31.02;;
32934;SDS011;19292;51.532;7.650;2024-02-26T07:08:59;31.83;;;30.52;;
32934;SDS011;19292;51.532;7.650;2024-02-26T07:11:25;28.17;;;26.98;;
32934;SDS011;19292;51.532;7.650;2024-02-26T07:16:15;32.83;;;31.45;;
32934;SDS011;19292;51.532;7.650;2024-02-26T07:18:41;37.92;;;36.38;;
32934;SDS011;19292;51.532;7.650;2024-02-26T07:21:10;36.30;;;34.55;;
32934;SDS011;19292;51.532;7.650;2024-02-26T07:23:39;36.50;;;34.95;;
32934;SDS011;19292;51.532;7.650;2024-02-26T07:26:04;24.15;;;23.15;;
32934;SDS011;19292;51.532;7.650;2024-02-26T07:28:29;28.50;;;27.30;;
32934;SDS011;19292;51.532;7.650;2024-02-26T07:30:59;17.63;;;16.80;;
32934;SDS011;19292;51.532;7.650;2024-02-26T07:33:29;21.50;;;20.58;;
32934;SDS011;19292;51.532;7.650;2024-02-26T07:35:55;20.98;;;19.98;;
32934;SDS011;19292;51.532;7.650;2024-02-26T07:38:20;15.98;;;15.27;;
32934;SDS011;19292;51.532;7.650;2024-02-26T07:40:49;18.67;;;17.80;;
32934;SDS011;19292;51.532;7.650;2024-02-26T07:43:16;21.17;;;20.25;;
32934;SDS011;19292;51.532;7.650;2024-02-26T07:45:42;19.10;;;18.23;;
32934;SDS011;19292;51.532;7.650;2024-02-26T07:48:09;82.63;;;78.78;;
32934;SDS011;19292;51.532;7.650;2024-02-26T07:50:38;16.23;;;15.18;;
32934;SDS011;19292;51.532;7.650;2024-02-26T07:53:06;17.25;;;16.50;;
32934;SDS011;19292;51.532;7.650;2024-02-26T07:55:31;16.55;;;15.85;;
32934;SDS011;19292;51.532;7.650;2024-02-26T07:57:57;12.80;;;12.20;;
32934;SDS011;19292;51.532;7.650;2024-02-26T08:00:22;19.45;;;18.50;;
32934;SDS011;19292;51.532;7.650;2024-02-26T08:02:47;20.15;;;19.15;;
32934;SDS011;19292;51.532;7.650;2024-02-26T08:05:17;29.92;;;28.58;;
32934;SDS011;19292;51.532;7.650;2024-02-26T08:07:47;46.30;;;44.33;;
32934;SDS011;19292;51.532;7.650;2024-02-26T08:10:12;39.38;;;37.65;;
32934;SDS011;19292;51.532;7.650;2024-02-26T08:12:40;37.22;;;35.47;;
32934;SDS011;19292;51.532;7.650;2024-02-26T08:15:10;44.33;;;42.53;;
32934;SDS011;19292;51.532;7.650;2024-02-26T08:17:38;39.15;;;37.55;;
32934;SDS011;19292;51.532;7.650;2024-02-26T08:20:03;40.10;;;38.35;;
32934;SDS011;19292;51.532;7.650;2024-02-26T08:22:29;44.03;;;41.75;;
32934;SDS011;19292;51.532;7.650;2024-02-26T08:24:55;45.33;;;43.47;;
32934;SDS011;19292;51.532;7.650;2024-02-26T08:27:20;47.85;;;45.83;;
32934;SDS011;19292;51.532;7.650;2024-02-26T08:29:45;34.83;;;33.42;;
32934;SDS011;19292;51.532;7.650;2024-02-26T08:32:13;43.58;;;41.75;;
32934;SDS011;19292;51.532;7.650;2024-02-26T08:34:41;50.60;;;48.47;;
32934;SDS011;19292;51.532;7.650;2024-02-26T08:37:08;54.13;;;51.80;;
32934;SDS011;19292;51.532;7.650;2024-02-26T08:39:34;58.70;;;56.22;;
32934;SDS011;19292;51.532;7.650;2024-02-26T08:42:01;50.20;;;48.17;;
32934;SDS011;19292;51.532;7.650;2024-02-26T08:44:26;45.95;;;44.05;;
32934;SDS011;19292;51.532;7.650;2024-02-26T08:46:54;44.90;;;42.75;;
32934;SDS011;19292;51.532;7.650;2024-02-26T08:49:19;44.33;;;42.53;;
32934;SDS011;19292;51.532;7.650;2024-02-26T08:51:47;43.33;;;41.45;;
32934;SDS011;19292;51.532;7.650;2024-02-26T08:54:13;37.75;;;36.05;;
32934;SDS011;19292;51.532;7.650;2024-02-26T08:56:38;45.88;;;43.80;;
32934;SDS011;19292;51.532;7.650;2024-02-26T08:59:05;50.00;;;47.92;;
32934;SDS011;19292;51.532;7.650;2024-02-26T09:01:33;47.40;;;45.40;;
32934;SDS011;19292;51.532;7.650;2024-02-26T09:04:04;46.33;;;44.22;;
32934;SDS011;19292;51.532;7.650;2024-02-26T09:06:29;50.00;;;47.72;;
32934;SDS011;19292;51.532;7.650;2024-02-26T09:08:54;45.20;;;43.20;;
32934;SDS011;19292;51.532;7.650;2024-02-26T09:11:20;41.60;;;39.83;;
32934;SDS011;19292;51.532;7.650;2024-02-26T09:13:45;30.20;;;28.90;;
32934;SDS011;19292;51.532;7.650;2024-02-26T09:16:11;34.17;;;32.67;;
32934;SDS011;19292;51.532;7.650;2024-02-26T09:18:39;44.22;;;42.33;;
32934;SDS011;19292;51.532;7.650;2024-02-26T09:21:09;42.05;;;40.28;;
32934;SDS011;19292;51.532;7.650;2024-02-26T09:23:34;36.92;;;35.38;;
32934;SDS011;19292;51.532;7.650;2024-02-26T09:26:05;31.92;;;30.60;;
32934;SDS011;19292;51.532;7.650;2024-02-26T09:28:34;33.92;;;32.50;;
32934;SDS011;19292;51.532;7.650;2024-02-26T09:31:03;37.20;;;35.65;;
32934;SDS011;19292;51.532;7.650;2024-02-26T09:33:32;42.55;;;40.75;;
32934;SDS011;19292;51.532;7.650;2024-02-26T09:35:57;40.13;;;38.22;;
32934;SDS011;19292;51.532;7.650;2024-02-26T09:38:23;38.08;;;36.53;;
32934;SDS011;19292;51.532;7.650;2024-02-26T09:40:49;39.78;;;38.08;;
32934;SDS011;19292;51.532;7.650;2024-02-26T09:43:21;36.03;;;34.35;;
32934;SDS011;19292;51.532;7.650;2024-02-26T09:45:50;36.65;;;35.05;;
32934;SDS011;19292;51.532;7.650;2024-02-26T09:48:16;46.50;;;44.47;;
32934;SDS011;19292;51.532;7.650;2024-02-26T09:50:45;52.25;;;50.03;;
32934;SDS011;19292;51.532;7.650;2024-02-26T09:53:12;57.58;;;55.20;;
32934;SDS011;19292;51.532;7.650;2024-02-26T09:55:39;60.13;;;57.58;;
32934;SDS011;19292;51.532;7.650;2024-02-26T09:58:10;55.90;;;53.55;;
32934;SDS011;19292;51.532;7.650;2024-02-26T10:00:37;57.00;;;54.45;;
32934;SDS011;19292;51.532;7.650;2024-02-26T10:03:04;60.75;;;58.28;;
32934;SDS011;19292;51.532;7.650;2024-02-26T10:05:31;67.25;;;64.43;;
32934;SDS011;19292;51.532;7.650;2024-02-26T10:07:57;70.10;;;67.15;;
32934;SDS011;19292;51.532;7.650;2024-02-26T10:10:23;70.65;;;67.70;;
32934;SDS011;19292;51.532;7.650;2024-02-26T10:12:52;73.07;;;69.32;;
32934;SDS011;19292;51.532;7.650;2024-02-26T10:15:17;70.38;;;67.45;;
32934;SDS011;19292;51.532;7.650;2024-02-26T10:17:43;73.15;;;70.13;;
32934;SDS011;19292;51.532;7.650;2024-02-26T10:20:11;114.20;;;109.40;;
32934;SDS011;19292;51.532;7.650;2024-02-26T10:22:37;80.22;;;76.88;;
32934;SDS011;19292;51.532;7.650;2024-02-26T10:25:03;88.75;;;85.07;;
32934;SDS011;19292;51.532;7.650;2024-02-26T10:27:29;67.30;;;64.50;;
32934;SDS011;19292;51.532;7.650;2024-02-26T10:29:56;38.67;;;36.97;;
32934;SDS011;19292;51.532;7.650;2024-02-26T10:32:22;25.20;;;23.38;;
32934;SDS011;19292;51.532;7.650;2024-02-26T10:34:47;14.57;;;13.77;;
32934;SDS011;19292;51.532;7.650;2024-02-26T10:37:12;7.80;;;7.30;;
32934;SDS011;19292;51.532;7.650;2024-02-26T10:39:38;6.30;;;3.67;;
32934;SDS011;19292;51.532;7.650;2024-02-26T10:42:04;4.07;;;2.17;;
32934;SDS011;19292;51.532;7.650;2024-02-26T10:44:35;4.10;;;2.80;;
32934;SDS011;19292;51.532;7.650;2024-02-26T10:47:00;3.17;;;2.78;;
32934;SDS011;19292;51.532;7.650;2024-02-26T10:49:28;5.82;;;5.07;;
32934;SDS011;19292;51.532;7.650;2024-02-26T10:51:56;7.05;;;6.43;;
32934;SDS011;19292;51.532;7.650;2024-02-26T10:54:25;12.32;;;11.52;;
32934;SDS011;19292;51.532;7.650;2024-02-26T10:56:54;12.70;;;11.80;;
32934;SDS011;19292;51.532;7.650;2024-02-26T10:59:21;12.32;;;11.43;;
32934;SDS011;19292;51.532;7.650;2024-02-26T11:01:50;10.30;;;9.75;;
32934;SDS011;19292;51.532;7.650;2024-02-26T11:04:16;11.52;;;10.82;;
32934;SDS011;19292;51.532;7.650;2024-02-26T11:06:42;6.97;;;6.55;;
32934;SDS011;19292;51.532;7.650;2024-02-26T11:09:08;4.30;;;4.00;;
32934;SDS011;19292;51.532;7.650;2024-02-26T11:11:38;4.72;;;2.95;;
32934;SDS011;19292;51.532;7.650;2024-02-26T11:14:06;4.35;;;1.95;;
32934;SDS011;19292;51.532;7.650;2024-02-26T11:16:31;2.70;;;1.73;;
32934;SDS011;19292;51.532;7.650;2024-02-26T11:19:02;2.42;;;2.22;;
32934;SDS011;19292;51.532;7.650;2024-02-26T11:21:33;2.17;;;1.52;;
32934;SDS011;19292;51.532;7.650;2024-02-26T11:24:13;3.38;;;2.50;;
32934;SDS011;19292;51.532;7.650;2024-02-26T11:26:45;6.18;;;5.60;;
32934;SDS011;19292;51.532;7.650;2024-02-26T11:29:13;3.70;;;3.40;;
32934;SDS011;19292;51.532;7.650;2024-02-26T11:31:52;5.78;;;5.38;;
32934;SDS011;19292;51.532;7.650;2024-02-26T11:34:18;10.07;;;9.38;;
32934;SDS011;19292;51.532;7.650;2024-02-26T11:36:43;7.97;;;7.57;;
32934;SDS011;19292;51.532;7.650;2024-02-26T11:39:10;7.22;;;6.72;;
32934;SDS011;19292;51.532;7.650;2024-02-26T11:41:41;7.13;;;6.63;;
32934;SDS011;19292;51.532;7.650;2024-02-26T11:44:07;5.43;;;5.03;;
32934;SDS011;19292;51.532;7.650;2024-02-26T11:46:34;4.40;;;4.00;;
32934;SDS011;19292;51.532;7.650;2024-02-26T11:51:51;2.13;;;1.92;;
32934;SDS011;19292;51.532;7.650;2024-02-26T11:57:24;2.63;;;1.83;;
32934;SDS011;19292;51.532;7.650;2024-02-26T11:59:52;2.67;;;2.17;;
32934;SDS011;19292;51.532;7.650;2024-02-26T12:03:02;2.90;;;2.08;;
32934;SDS011;19292;51.532;7.650;2024-02-26T12:05:13;1.70;;;1.60;;
32934;SDS011;19292;51.532;7.650;2024-02-26T12:07:42;4.13;;;3.72;;
32934;SDS011;19292;51.532;7.650;2024-02-26T12:12:59;2.78;;;2.55;;
32934;SDS011;19292;51.532;7.650;2024-02-26T12:15:38;5.18;;;4.50;;
32934;SDS011;19292;51.532;7.650;2024-02-26T12:18:08;5.70;;;5.40;;
32934;SDS011;19292;51.532;7.650;2024-02-26T12:20:39;8.07;;;7.50;;
32934;SDS011;19292;51.532;7.650;2024-02-26T12:23:04;9.38;;;8.60;;
32934;SDS011;19292;51.532;7.650;2024-02-26T12:25:32;24.90;;;9.98;;
32934;SDS011;19292;51.532;7.650;2024-02-26T12:27:58;8.23;;;7.60;;
32934;SDS011;19292;51.532;7.650;2024-02-26T12:30:26;10.40;;;9.73;;
32934;SDS011;19292;51.532;7.650;2024-02-26T12:32:55;8.65;;;7.95;;
32934;SDS011;19292;51.532;7.650;2024-02-26T12:35:25;8.27;;;7.60;;
32934;SDS011;19292;51.532;7.650;2024-02-26T12:37:52;8.15;;;7.45;;
32934;SDS011;19292;51.532;7.650;2024-02-26T12:40:22;6.72;;;5.63;;
32934;SDS011;19292;51.532;7.650;2024-02-26T12:42:48;5.25;;;4.68;;
32934;SDS011;19292;51.532;7.650;2024-02-26T12:45:16;4.72;;;4.32;;
32934;SDS011;19292;51.532;7.650;2024-02-26T12:47:45;4.38;;;2.95;;
32934;SDS011;19292;51.532;7.650;2024-02-26T12:50:11;4.30;;;3.35;;
32934;SDS011;19292;51.532;7.650;2024-02-26T12:52:39;4.78;;;2.80;;
32934;SDS011;19292;51.532;7.650;2024-02-26T12:55:06;3.25;;;2.22;;
32934;SDS011;19292;51.532;7.650;2024-02-26T12:57:37;2.78;;;2.58;;
32934;SDS011;19292;51.532;7.650;2024-02-26T13:00:04;5.43;;;4.07;;
32934;SDS011;19292;51.532;7.650;2024-02-26T13:02:34;5.13;;;4.72;;
32934;SDS011;19292;51.532;7.650;2024-02-26T13:05:08;6.35;;;5.78;;
32934;SDS011;19292;51.532;7.650;2024-02-26T13:07:43;5.47;;;5.05;;
32934;SDS011;19292;51.532;7.650;2024-02-26T13:10:12;6.90;;;6.38;;
32934;SDS011;19292;51.532;7.650;2024-02-26T13:12:42;7.75;;;7.35;;
32934;SDS011;19292;51.532;7.650;2024-02-26T13:15:15;5.18;;;4.88;;
32934;SDS011;19292;51.532;7.650;2024-02-26T13:17:43;5.65;;;5.15;;
32934;SDS011;19292;51.532;7.650;2024-02-26T13:20:10;6.80;;;6.32;;
32934;SDS011;19292;51.532;7.650;2024-02-26T13:22:36;9.98;;;9.27;;
32934;SDS011;19292;51.532;7.650;2024-02-26T13:25:04;9.15;;;8.50;;
32934;SDS011;19292;51.532;7.650;2024-02-26T13:27:32;6.93;;;6.55;;
32934;SDS011;19292;51.532;7.650;2024-02-26T13:30:09;7.40;;;6.78;;
32934;SDS011;19292;51.532;7.650;2024-02-26T13:32:36;5.72;;;5.32;;
32934;SDS011;19292;51.532;7.650;2024-02-26T13:35:08;5.00;;;4.70;;
32934;SDS011;19292;51.532;7.650;2024-02-26T13:37:37;6.35;;;4.95;;
32934;SDS011;19292;51.532;7.650;2024-02-26T13:40:09;5.32;;;4.38;;
32934;SDS011;19292;51.532;7.650;2024-02-26T13:42:38;3.53;;;2.30;;
32934;SDS011;19292;51.532;7.650;2024-02-26T13:45:03;3.42;;;2.47;;
32934;SDS011;19292;51.532;7.650;2024-02-26T13:47:33;2.15;;;1.83;;
32934;SDS011;19292;51.532;7.650;2024-02-26T13:50:01;4.80;;;2.80;;
32934;SDS011;19292;51.532;7.650;2024-02-26T13:52:27;4.45;;;2.40;;
32934;SDS011;19292;51.532;7.650;2024-02-26T13:54:52;2.30;;;2.08;;
32934;SDS011;19292;51.532;7.650;2024-02-26T13:57:18;2.20;;;2.00;;
32934;SDS011;19292;51.532;7.650;2024-02-26T13:59:47;3.70;;;2.63;;
32934;SDS011;19292;51.532;7.650;2024-02-26T14:02:15;4.75;;;2.17;;
32934;SDS011;19292;51.532;7.650;2024-02-26T14:04:41;5.18;;;2.72;;
32934;SDS011;19292;51.532;7.650;2024-02-26T14:07:07;4.25;;;2.60;;
32934;SDS011;19292;51.532;7.650;2024-02-26T14:09:33;2.80;;;2.25;;
32934;SDS011;19292;51.532;7.650;2024-02-26T14:11:59;5.88;;;4.78;;
32934;SDS011;19292;51.532;7.650;2024-02-26T14:14:27;7.70;;;7.00;;
32934;SDS011;19292;51.532;7.650;2024-02-26T14:16:52;13.90;;;12.90;;
32934;SDS011;19292;51.532;7.650;2024-02-26T14:19:22;10.75;;;10.15;;
32934;SDS011;19292;51.532;7.650;2024-02-26T14:21:47;10.15;;;9.55;;
32934;SDS011;19292;51.532;7.650;2024-02-26T14:24:13;10.90;;;9.90;;
32934;SDS011;19292;51.532;7.650;2024-02-26T14:26:38;13.07;;;12.07;;
32934;SDS011;19292;51.532;7.650;2024-02-26T14:29:05;11.00;;;10.00;;
32934;SDS011;19292;51.532;7.650;2024-02-26T14:31:31;10.30;;;9.70;;
32934;SDS011;19292;51.532;7.650;2024-02-26T14:33:57;7.70;;;7.20;;
32934;SDS011;19292;51.532;7.650;2024-02-26T14:36:22;10.65;;;9.85;;
32934;SDS011;19292;51.532;7.650;2024-02-26T14:38:48;9.10;;;8.27;;
32934;SDS011;19292;51.532;7.650;2024-02-26T14:41:13;6.13;;;5.47;;
32934;SDS011;19292;51.532;7.650;2024-02-26T14:43:38;6.10;;;5.55;;
32934;SDS011;19292;51.532;7.650;2024-02-26T14:46:06;4.78;;;4.47;;
32934;SDS011;19292;51.532;7.650;2024-02-26T14:48:34;3.85;;;3.50;;
32934;SDS011;19292;51.532;7.650;2024-02-26T14:51:00;3.08;;;2.80;;
32934;SDS011;19292;51.532;7.650;2024-02-26T14:53:26;2.53;;;2.33;;